sensor_id;sensor_type;location;lat;lon;timestamp;temperature;humidity
39957;DHT22;48483;44.640;7.494;2024-03-25T00:00:25;9.40;61.80
39957;DHT22;48483;44.640;7.494;2024-03-25T00:02:54;9.40;62.80
39957;DHT22;48483;44.640;7.494;2024-03-25T00:05:20;9.50;63.80
39957;DHT22;48483;44.640;7.494;2024-03-25T00:07:52;9.50;62.00
39957;DHT22;48483;44.640;7.494;2024-03-25T00:10:19;9.50;61.50
39957;DHT22;48483;44.640;7.494;2024-03-25T00:12:47;9.50;61.50
39957;DHT22;48483;44.640;7.494;2024-03-25T00:15:18;9.50;61.40
39957;DHT22;48483;44.640;7.494;2024-03-25T00:17:46;9.50;62.40
39957;DHT22;48483;44.640;7.494;2024-03-25T00:20:14;9.40;63.20
39957;DHT22;48483;44.640;7.494;2024-03-25T00:22:41;9.40;63.90
39957;DHT22;48483;44.640;7.494;2024-03-25T00:25:08;9.40;63.50
39957;DHT22;48483;44.640;7.494;2024-03-25T00:27:35;9.40;64.50
39957;DHT22;48483;44.640;7.494;2024-03-25T00:30:02;9.30;64.60
39957;DHT22;48483;44.640;7.494;2024-03-25T00:32:31;9.40;64.70
39957;DHT22;48483;44.640;7.494;2024-03-25T00:34:58;9.40;65.50
39957;DHT22;48483;44.640;7.494;2024-03-25T00:37:26;9.40;64.40
39957;DHT22;48483;44.640;7.494;2024-03-25T00:39:53;9.40;65.20
39957;DHT22;48483;44.640;7.494;2024-03-25T00:42:19;9.50;65.20
39957;DHT22;48483;44.640;7.494;2024-03-25T00:44:46;9.50;65.20
39957;DHT22;48483;44.640;7.494;2024-03-25T00:47:13;9.50;64.60
39957;DHT22;48483;44.640;7.494;2024-03-25T00:49:39;9.50;63.70
39957;DHT22;48483;44.640;7.494;2024-03-25T00:52:06;9.60;63.10
39957;DHT22;48483;44.640;7.494;2024-03-25T00:54:34;9.50;63.30
39957;DHT22;48483;44.640;7.494;2024-03-25T00:57:01;9.50;64.80
39957;DHT22;48483;44.640;7.494;2024-03-25T00:59:27;9.50;65.10
39957;DHT22;48483;44.640;7.494;2024-03-25T01:01:54;9.40;65.40
39957;DHT22;48483;44.640;7.494;2024-03-25T01:04:20;9.40;64.30
39957;DHT22;48483;44.640;7.494;2024-03-25T01:06:47;9.40;64.30
39957;DHT22;48483;44.640;7.494;2024-03-25T01:09:15;9.40;66.00
39957;DHT22;48483;44.640;7.494;2024-03-25T01:11:43;9.40;66.40
39957;DHT22;48483;44.640;7.494;2024-03-25T01:14:10;9.30;66.10
39957;DHT22;48483;44.640;7.494;2024-03-25T01:16:36;9.30;66.50
39957;DHT22;48483;44.640;7.494;2024-03-25T01:19:03;9.10;66.60
39957;DHT22;48483;44.640;7.494;2024-03-25T01:21:30;9.10;66.70
39957;DHT22;48483;44.640;7.494;2024-03-25T01:23:56;9.00;66.50
39957;DHT22;48483;44.640;7.494;2024-03-25T01:26:23;8.90;66.80
39957;DHT22;48483;44.640;7.494;2024-03-25T01:28:51;8.90;67.00
39957;DHT22;48483;44.640;7.494;2024-03-25T01:31:19;8.90;67.00
39957;DHT22;48483;44.640;7.494;2024-03-25T01:33:46;8.90;66.40
39957;DHT22;48483;44.640;7.494;2024-03-25T01:36:12;8.90;67.40
39957;DHT22;48483;44.640;7.494;2024-03-25T01:38:44;8.80;69.20
39957;DHT22;48483;44.640;7.494;2024-03-25T01:41:12;8.70;68.80
39957;DHT22;48483;44.640;7.494;2024-03-25T01:43:39;8.70;69.40
39957;DHT22;48483;44.640;7.494;2024-03-25T01:46:07;8.70;68.60
39957;DHT22;48483;44.640;7.494;2024-03-25T01:48:34;8.70;69.30
39957;DHT22;48483;44.640;7.494;2024-03-25T01:51:01;8.60;70.20
39957;DHT22;48483;44.640;7.494;2024-03-25T01:53:29;8.60;69.90
39957;DHT22;48483;44.640;7.494;2024-03-25T01:55:57;8.50;69.50
39957;DHT22;48483;44.640;7.494;2024-03-25T01:58:25;8.50;69.40
39957;DHT22;48483;44.640;7.494;2024-03-25T02:00:53;8.50;69.50
39957;DHT22;48483;44.640;7.494;2024-03-25T02:03:22;8.40;70.00
39957;DHT22;48483;44.640;7.494;2024-03-25T02:05:52;8.50;70.70
39957;DHT22;48483;44.640;7.494;2024-03-25T02:08:19;8.40;71.80
39957;DHT22;48483;44.640;7.494;2024-03-25T02:10:47;8.30;71.70
39957;DHT22;48483;44.640;7.494;2024-03-25T02:13:15;8.30;71.90
39957;DHT22;48483;44.640;7.494;2024-03-25T02:15:41;8.30;71.90
39957;DHT22;48483;44.640;7.494;2024-03-25T02:18:08;8.20;72.40
39957;DHT22;48483;44.640;7.494;2024-03-25T02:20:36;8.20;72.80
39957;DHT22;48483;44.640;7.494;2024-03-25T02:23:03;8.20;72.20
39957;DHT22;48483;44.640;7.494;2024-03-25T02:25:33;8.30;71.00
39957;DHT22;48483;44.640;7.494;2024-03-25T02:28:01;8.30;70.30
39957;DHT22;48483;44.640;7.494;2024-03-25T02:30:28;8.20;69.90
39957;DHT22;48483;44.640;7.494;2024-03-25T02:32:54;8.10;70.20
39957;DHT22;48483;44.640;7.494;2024-03-25T02:35:22;8.10;69.50
39957;DHT22;48483;44.640;7.494;2024-03-25T02:37:50;8.10;69.50
39957;DHT22;48483;44.640;7.494;2024-03-25T02:40:18;8.10;69.00
39957;DHT22;48483;44.640;7.494;2024-03-25T02:42:45;8.10;68.50
39957;DHT22;48483;44.640;7.494;2024-03-25T02:45:13;8.20;68.90
39957;DHT22;48483;44.640;7.494;2024-03-25T02:47:40;8.10;69.90
39957;DHT22;48483;44.640;7.494;2024-03-25T02:50:07;8.10;69.70
39957;DHT22;48483;44.640;7.494;2024-03-25T02:52:34;8.00;69.70
39957;DHT22;48483;44.640;7.494;2024-03-25T02:55:01;8.00;69.80
39957;DHT22;48483;44.640;7.494;2024-03-25T02:57:27;8.00;69.30
39957;DHT22;48483;44.640;7.494;2024-03-25T02:59:54;8.00;69.00
39957;DHT22;48483;44.640;7.494;2024-03-25T03:02:22;8.00;68.80
39957;DHT22;48483;44.640;7.494;2024-03-25T03:04:49;8.00;68.90
39957;DHT22;48483;44.640;7.494;2024-03-25T03:07:16;8.00;68.80
39957;DHT22;48483;44.640;7.494;2024-03-25T03:09:42;8.00;69.60
39957;DHT22;48483;44.640;7.494;2024-03-25T03:12:09;7.90;70.10
39957;DHT22;48483;44.640;7.494;2024-03-25T03:14:36;7.90;69.90
39957;DHT22;48483;44.640;7.494;2024-03-25T03:17:03;7.90;69.90
39957;DHT22;48483;44.640;7.494;2024-03-25T03:19:32;7.90;69.90
39957;DHT22;48483;44.640;7.494;2024-03-25T03:22:02;7.90;69.40
39957;DHT22;48483;44.640;7.494;2024-03-25T03:24:29;7.90;68.90
39957;DHT22;48483;44.640;7.494;2024-03-25T03:26:56;7.80;69.80
39957;DHT22;48483;44.640;7.494;2024-03-25T03:29:23;7.80;69.10
39957;DHT22;48483;44.640;7.494;2024-03-25T03:31:49;7.90;68.50
39957;DHT22;48483;44.640;7.494;2024-03-25T03:34:16;7.80;68.90
39957;DHT22;48483;44.640;7.494;2024-03-25T03:36:44;7.70;68.10
39957;DHT22;48483;44.640;7.494;2024-03-25T03:39:10;7.70;67.60
39957;DHT22;48483;44.640;7.494;2024-03-25T03:41:37;7.70;67.50
39957;DHT22;48483;44.640;7.494;2024-03-25T03:44:04;7.70;67.70
39957;DHT22;48483;44.640;7.494;2024-03-25T03:46:31;7.70;68.20
39957;DHT22;48483;44.640;7.494;2024-03-25T03:48:57;7.70;69.40
39957;DHT22;48483;44.640;7.494;2024-03-25T03:51:24;7.70;69.90
39957;DHT22;48483;44.640;7.494;2024-03-25T03:53:52;7.80;69.20
39957;DHT22;48483;44.640;7.494;2024-03-25T03:56:19;7.80;68.70
39957;DHT22;48483;44.640;7.494;2024-03-25T03:58:45;7.80;68.80
39957;DHT22;48483;44.640;7.494;2024-03-25T04:01:15;7.80;68.20
39957;DHT22;48483;44.640;7.494;2024-03-25T04:03:42;7.90;68.70
39957;DHT22;48483;44.640;7.494;2024-03-25T04:06:10;7.80;69.10
39957;DHT22;48483;44.640;7.494;2024-03-25T04:08:38;7.80;69.40
39957;DHT22;48483;44.640;7.494;2024-03-25T04:11:06;7.70;70.30
39957;DHT22;48483;44.640;7.494;2024-03-25T04:13:33;7.60;71.80
39957;DHT22;48483;44.640;7.494;2024-03-25T04:16:03;7.50;72.90
39957;DHT22;48483;44.640;7.494;2024-03-25T04:18:30;7.50;73.00
39957;DHT22;48483;44.640;7.494;2024-03-25T04:20:57;7.40;72.50
39957;DHT22;48483;44.640;7.494;2024-03-25T04:23:25;7.50;71.80
39957;DHT22;48483;44.640;7.494;2024-03-25T04:25:52;7.50;71.50
39957;DHT22;48483;44.640;7.494;2024-03-25T04:28:20;7.50;71.90
39957;DHT22;48483;44.640;7.494;2024-03-25T04:30:52;7.50;73.00
39957;DHT22;48483;44.640;7.494;2024-03-25T04:33:19;7.40;73.30
39957;DHT22;48483;44.640;7.494;2024-03-25T04:35:46;7.40;73.40
39957;DHT22;48483;44.640;7.494;2024-03-25T04:38:15;7.40;73.40
39957;DHT22;48483;44.640;7.494;2024-03-25T04:40:42;7.40;72.70
39957;DHT22;48483;44.640;7.494;2024-03-25T04:43:10;7.40;72.60
39957;DHT22;48483;44.640;7.494;2024-03-25T04:45:38;7.40;72.40
39957;DHT22;48483;44.640;7.494;2024-03-25T04:48:06;7.40;71.20
39957;DHT22;48483;44.640;7.494;2024-03-25T04:50:34;7.40;72.60
39957;DHT22;48483;44.640;7.494;2024-03-25T04:53:00;7.40;72.70
39957;DHT22;48483;44.640;7.494;2024-03-25T04:55:27;7.30;73.60
39957;DHT22;48483;44.640;7.494;2024-03-25T04:57:54;7.30;74.20
39957;DHT22;48483;44.640;7.494;2024-03-25T05:00:20;7.30;74.00
39957;DHT22;48483;44.640;7.494;2024-03-25T05:02:49;7.30;73.50
39957;DHT22;48483;44.640;7.494;2024-03-25T05:05:15;7.30;72.00
39957;DHT22;48483;44.640;7.494;2024-03-25T05:07:42;7.30;71.60
39957;DHT22;48483;44.640;7.494;2024-03-25T05:10:09;7.30;71.80
39957;DHT22;48483;44.640;7.494;2024-03-25T05:12:35;7.20;72.10
39957;DHT22;48483;44.640;7.494;2024-03-25T05:15:02;7.20;72.60
39957;DHT22;48483;44.640;7.494;2024-03-25T05:17:29;7.10;72.70
39957;DHT22;48483;44.640;7.494;2024-03-25T05:19:57;7.10;72.20
39957;DHT22;48483;44.640;7.494;2024-03-25T05:22:24;7.10;71.60
39957;DHT22;48483;44.640;7.494;2024-03-25T05:24:50;7.10;71.00
39957;DHT22;48483;44.640;7.494;2024-03-25T05:27:17;7.10;70.70
39957;DHT22;48483;44.640;7.494;2024-03-25T05:29:44;7.10;70.60
39957;DHT22;48483;44.640;7.494;2024-03-25T05:32:10;7.20;71.50
39957;DHT22;48483;44.640;7.494;2024-03-25T05:34:37;7.20;71.60
39957;DHT22;48483;44.640;7.494;2024-03-25T05:37:05;7.20;72.40
39957;DHT22;48483;44.640;7.494;2024-03-25T05:39:32;7.20;72.90
39957;DHT22;48483;44.640;7.494;2024-03-25T05:41:58;7.20;73.30
39957;DHT22;48483;44.640;7.494;2024-03-25T05:44:25;7.10;72.60
39957;DHT22;48483;44.640;7.494;2024-03-25T05:46:52;7.10;72.50
39957;DHT22;48483;44.640;7.494;2024-03-25T05:49:18;7.20;72.40
39957;DHT22;48483;44.640;7.494;2024-03-25T05:51:45;7.20;72.10
39957;DHT22;48483;44.640;7.494;2024-03-25T05:54:13;7.20;72.50
39957;DHT22;48483;44.640;7.494;2024-03-25T05:56:39;7.20;72.80
39957;DHT22;48483;44.640;7.494;2024-03-25T05:59:06;7.20;73.70
39957;DHT22;48483;44.640;7.494;2024-03-25T06:01:34;7.30;74.20
39957;DHT22;48483;44.640;7.494;2024-03-25T06:04:03;7.30;74.80
39957;DHT22;48483;44.640;7.494;2024-03-25T06:06:31;7.30;75.40
39957;DHT22;48483;44.640;7.494;2024-03-25T06:08:58;7.30;75.70
39957;DHT22;48483;44.640;7.494;2024-03-25T06:11:26;7.30;75.60
39957;DHT22;48483;44.640;7.494;2024-03-25T06:13:53;7.30;76.30
39957;DHT22;48483;44.640;7.494;2024-03-25T06:16:19;7.40;75.60
39957;DHT22;48483;44.640;7.494;2024-03-25T06:18:46;7.40;74.50
39957;DHT22;48483;44.640;7.494;2024-03-25T06:21:12;7.40;73.50
39957;DHT22;48483;44.640;7.494;2024-03-25T06:23:39;7.50;72.80
39957;DHT22;48483;44.640;7.494;2024-03-25T06:26:07;7.60;72.30
39957;DHT22;48483;44.640;7.494;2024-03-25T06:28:35;7.70;72.00
39957;DHT22;48483;44.640;7.494;2024-03-25T06:31:01;7.70;72.20
39957;DHT22;48483;44.640;7.494;2024-03-25T06:33:47;7.80;73.30
39957;DHT22;48483;44.640;7.494;2024-03-25T06:36:32;7.80;71.60
39957;DHT22;48483;44.640;7.494;2024-03-25T06:38:59;8.00;71.20
39957;DHT22;48483;44.640;7.494;2024-03-25T06:41:26;8.10;69.10
39957;DHT22;48483;44.640;7.494;2024-03-25T06:43:54;8.10;67.00
39957;DHT22;48483;44.640;7.494;2024-03-25T06:46:21;8.20;66.00
39957;DHT22;48483;44.640;7.494;2024-03-25T06:48:47;8.20;64.00
39957;DHT22;48483;44.640;7.494;2024-03-25T06:51:14;8.30;63.60
39957;DHT22;48483;44.640;7.494;2024-03-25T06:53:41;8.40;63.20
39957;DHT22;48483;44.640;7.494;2024-03-25T06:56:07;8.60;62.70
39957;DHT22;48483;44.640;7.494;2024-03-25T06:58:34;8.80;62.40
39957;DHT22;48483;44.640;7.494;2024-03-25T07:01:06;9.00;62.30
39957;DHT22;48483;44.640;7.494;2024-03-25T07:03:36;9.20;62.30
39957;DHT22;48483;44.640;7.494;2024-03-25T07:06:03;9.40;62.30
39957;DHT22;48483;44.640;7.494;2024-03-25T07:08:29;9.60;60.60
39957;DHT22;48483;44.640;7.494;2024-03-25T07:10:59;9.70;58.90
39957;DHT22;48483;44.640;7.494;2024-03-25T07:13:26;9.80;57.70
39957;DHT22;48483;44.640;7.494;2024-03-25T07:15:53;10.00;56.90
39957;DHT22;48483;44.640;7.494;2024-03-25T07:18:21;10.20;55.60
39957;DHT22;48483;44.640;7.494;2024-03-25T07:20:47;10.30;54.90
39957;DHT22;48483;44.640;7.494;2024-03-25T07:23:15;10.40;54.00
39957;DHT22;48483;44.640;7.494;2024-03-25T07:25:41;10.60;53.30
39957;DHT22;48483;44.640;7.494;2024-03-25T07:28:08;10.70;52.00
39957;DHT22;48483;44.640;7.494;2024-03-25T07:30:35;10.80;52.30
39957;DHT22;48483;44.640;7.494;2024-03-25T07:33:01;10.90;51.50
39957;DHT22;48483;44.640;7.494;2024-03-25T07:35:29;11.00;51.40
39957;DHT22;48483;44.640;7.494;2024-03-25T07:37:56;11.10;51.10
39957;DHT22;48483;44.640;7.494;2024-03-25T07:40:23;11.20;50.90
39957;DHT22;48483;44.640;7.494;2024-03-25T07:42:49;11.30;50.90
39957;DHT22;48483;44.640;7.494;2024-03-25T07:45:16;11.40;51.20
39957;DHT22;48483;44.640;7.494;2024-03-25T07:47:43;11.60;51.80
39957;DHT22;48483;44.640;7.494;2024-03-25T07:50:12;11.60;50.60
39957;DHT22;48483;44.640;7.494;2024-03-25T07:52:41;11.60;49.70
39957;DHT22;48483;44.640;7.494;2024-03-25T07:55:08;11.60;50.20
39957;DHT22;48483;44.640;7.494;2024-03-25T07:57:34;11.70;50.40
39957;DHT22;48483;44.640;7.494;2024-03-25T08:00:01;11.80;50.70
39957;DHT22;48483;44.640;7.494;2024-03-25T08:02:28;11.90;50.00
39957;DHT22;48483;44.640;7.494;2024-03-25T08:04:54;11.90;50.00
39957;DHT22;48483;44.640;7.494;2024-03-25T08:07:21;12.00;50.70
39957;DHT22;48483;44.640;7.494;2024-03-25T08:09:49;12.00;49.60
39957;DHT22;48483;44.640;7.494;2024-03-25T08:12:16;12.20;50.70
39957;DHT22;48483;44.640;7.494;2024-03-25T08:14:42;12.20;50.10
39957;DHT22;48483;44.640;7.494;2024-03-25T08:17:09;12.20;50.30
39957;DHT22;48483;44.640;7.494;2024-03-25T08:19:36;12.30;51.00
39957;DHT22;48483;44.640;7.494;2024-03-25T08:22:03;12.40;51.20
39957;DHT22;48483;44.640;7.494;2024-03-25T08:24:30;12.50;50.70
39957;DHT22;48483;44.640;7.494;2024-03-25T08:26:58;12.50;50.70
39957;DHT22;48483;44.640;7.494;2024-03-25T08:29:25;12.50;51.50
39957;DHT22;48483;44.640;7.494;2024-03-25T08:31:52;12.50;51.60
39957;DHT22;48483;44.640;7.494;2024-03-25T08:34:18;12.50;51.10
39957;DHT22;48483;44.640;7.494;2024-03-25T08:36:46;12.60;51.20
39957;DHT22;48483;44.640;7.494;2024-03-25T08:39:12;12.60;50.30
39957;DHT22;48483;44.640;7.494;2024-03-25T08:41:40;12.50;49.80
39957;DHT22;48483;44.640;7.494;2024-03-25T08:44:08;12.70;50.00
39957;DHT22;48483;44.640;7.494;2024-03-25T08:46:34;12.80;49.60
39957;DHT22;48483;44.640;7.494;2024-03-25T08:49:02;12.90;49.30
39957;DHT22;48483;44.640;7.494;2024-03-25T08:51:28;13.00;49.50
39957;DHT22;48483;44.640;7.494;2024-03-25T08:53:55;13.10;49.20
39957;DHT22;48483;44.640;7.494;2024-03-25T08:56:22;13.20;49.90
39957;DHT22;48483;44.640;7.494;2024-03-25T08:58:48;13.10;48.90
39957;DHT22;48483;44.640;7.494;2024-03-25T09:01:16;13.10;49.30
39957;DHT22;48483;44.640;7.494;2024-03-25T09:03:43;13.10;50.00
39957;DHT22;48483;44.640;7.494;2024-03-25T09:06:11;13.20;49.70
39957;DHT22;48483;44.640;7.494;2024-03-25T09:08:37;13.10;49.60
39957;DHT22;48483;44.640;7.494;2024-03-25T09:11:24;13.20;49.70
39957;DHT22;48483;44.640;7.494;2024-03-25T09:13:51;13.20;50.00
39957;DHT22;48483;44.640;7.494;2024-03-25T09:16:20;13.40;50.90
39957;DHT22;48483;44.640;7.494;2024-03-25T09:18:46;13.50;51.10
39957;DHT22;48483;44.640;7.494;2024-03-25T09:21:15;13.60;50.10
39957;DHT22;48483;44.640;7.494;2024-03-25T09:23:42;13.60;48.30
39957;DHT22;48483;44.640;7.494;2024-03-25T09:26:09;13.50;47.10
39957;DHT22;48483;44.640;7.494;2024-03-25T09:28:37;13.60;48.00
39957;DHT22;48483;44.640;7.494;2024-03-25T09:31:03;13.70;49.00
39957;DHT22;48483;44.640;7.494;2024-03-25T09:33:33;13.70;49.90
39957;DHT22;48483;44.640;7.494;2024-03-25T09:36:01;13.70;49.00
39957;DHT22;48483;44.640;7.494;2024-03-25T09:38:27;13.70;47.40
39957;DHT22;48483;44.640;7.494;2024-03-25T09:40:55;13.60;45.30
39957;DHT22;48483;44.640;7.494;2024-03-25T09:43:27;13.40;46.30
39957;DHT22;48483;44.640;7.494;2024-03-25T09:45:57;13.50;48.00
39957;DHT22;48483;44.640;7.494;2024-03-25T09:48:25;13.60;48.60
39957;DHT22;48483;44.640;7.494;2024-03-25T09:50:54;13.60;49.40
39957;DHT22;48483;44.640;7.494;2024-03-25T09:53:21;13.60;48.60
39957;DHT22;48483;44.640;7.494;2024-03-25T09:55:48;13.70;48.60
39957;DHT22;48483;44.640;7.494;2024-03-25T09:58:15;13.50;46.50
39957;DHT22;48483;44.640;7.494;2024-03-25T10:00:42;13.40;47.40
39957;DHT22;48483;44.640;7.494;2024-03-25T10:03:09;13.50;47.90
39957;DHT22;48483;44.640;7.494;2024-03-25T10:05:37;13.70;48.70
39957;DHT22;48483;44.640;7.494;2024-03-25T10:08:06;13.80;48.60
39957;DHT22;48483;44.640;7.494;2024-03-25T10:10:33;13.80;47.70
39957;DHT22;48483;44.640;7.494;2024-03-25T10:13:00;13.80;47.00
39957;DHT22;48483;44.640;7.494;2024-03-25T10:15:27;13.60;47.70
39957;DHT22;48483;44.640;7.494;2024-03-25T10:17:54;13.60;48.00
39957;DHT22;48483;44.640;7.494;2024-03-25T10:20:20;13.70;49.10
39957;DHT22;48483;44.640;7.494;2024-03-25T10:22:48;13.70;48.50
39957;DHT22;48483;44.640;7.494;2024-03-25T10:25:25;13.70;48.70
39957;DHT22;48483;44.640;7.494;2024-03-25T10:27:56;13.80;48.10
39957;DHT22;48483;44.640;7.494;2024-03-25T10:30:22;14.00;48.30
39957;DHT22;48483;44.640;7.494;2024-03-25T10:32:59;13.90;44.90
39957;DHT22;48483;44.640;7.494;2024-03-25T10:35:29;13.80;44.60
39957;DHT22;48483;44.640;7.494;2024-03-25T10:37:59;13.80;44.40
39957;DHT22;48483;44.640;7.494;2024-03-25T10:40:28;13.70;45.60
39957;DHT22;48483;44.640;7.494;2024-03-25T10:43:01;13.90;46.00
39957;DHT22;48483;44.640;7.494;2024-03-25T10:45:29;14.10;46.50
39957;DHT22;48483;44.640;7.494;2024-03-25T10:47:57;14.10;46.30
39957;DHT22;48483;44.640;7.494;2024-03-25T10:50:28;14.00;46.20
39957;DHT22;48483;44.640;7.494;2024-03-25T10:52:57;14.00;46.10
39957;DHT22;48483;44.640;7.494;2024-03-25T10:55:26;14.10;46.40
39957;DHT22;48483;44.640;7.494;2024-03-25T10:57:54;14.10;46.40
39957;DHT22;48483;44.640;7.494;2024-03-25T11:00:23;14.10;46.60
39957;DHT22;48483;44.640;7.494;2024-03-25T11:02:50;14.20;46.90
39957;DHT22;48483;44.640;7.494;2024-03-25T11:05:17;14.10;45.50
39957;DHT22;48483;44.640;7.494;2024-03-25T11:07:44;13.80;45.30
39957;DHT22;48483;44.640;7.494;2024-03-25T11:10:12;14.00;45.50
39957;DHT22;48483;44.640;7.494;2024-03-25T11:12:41;14.00;45.50
39957;DHT22;48483;44.640;7.494;2024-03-25T11:15:09;14.00;44.60
39957;DHT22;48483;44.640;7.494;2024-03-25T11:17:36;14.10;44.60
39957;DHT22;48483;44.640;7.494;2024-03-25T11:20:08;14.30;45.20
39957;DHT22;48483;44.640;7.494;2024-03-25T11:22:35;14.40;44.80
39957;DHT22;48483;44.640;7.494;2024-03-25T11:25:06;14.50;43.30
39957;DHT22;48483;44.640;7.494;2024-03-25T11:27:36;14.40;43.90
39957;DHT22;48483;44.640;7.494;2024-03-25T11:30:05;14.40;44.00
39957;DHT22;48483;44.640;7.494;2024-03-25T11:32:45;14.30;44.20
39957;DHT22;48483;44.640;7.494;2024-03-25T11:35:13;14.40;45.00
39957;DHT22;48483;44.640;7.494;2024-03-25T11:37:41;14.40;45.00
39957;DHT22;48483;44.640;7.494;2024-03-25T11:40:09;14.40;45.10
39957;DHT22;48483;44.640;7.494;2024-03-25T11:42:39;14.50;44.80
39957;DHT22;48483;44.640;7.494;2024-03-25T11:45:10;14.50;44.50
39957;DHT22;48483;44.640;7.494;2024-03-25T11:47:42;14.60;45.00
39957;DHT22;48483;44.640;7.494;2024-03-25T11:50:10;14.70;44.20
39957;DHT22;48483;44.640;7.494;2024-03-25T11:52:37;14.60;44.80
39957;DHT22;48483;44.640;7.494;2024-03-25T11:55:04;14.60;45.30
39957;DHT22;48483;44.640;7.494;2024-03-25T11:57:31;14.50;45.30
39957;DHT22;48483;44.640;7.494;2024-03-25T11:59:59;14.40;45.50
39957;DHT22;48483;44.640;7.494;2024-03-25T12:02:29;14.40;46.00
39957;DHT22;48483;44.640;7.494;2024-03-25T12:04:56;14.40;45.00
39957;DHT22;48483;44.640;7.494;2024-03-25T12:07:22;14.50;45.20
39957;DHT22;48483;44.640;7.494;2024-03-25T12:09:49;14.40;45.40
39957;DHT22;48483;44.640;7.494;2024-03-25T12:12:34;14.50;45.80
39957;DHT22;48483;44.640;7.494;2024-03-25T12:15:07;14.50;46.20
39957;DHT22;48483;44.640;7.494;2024-03-25T12:17:38;14.50;46.70
39957;DHT22;48483;44.640;7.494;2024-03-25T12:20:08;14.30;46.90
39957;DHT22;48483;44.640;7.494;2024-03-25T12:22:37;14.40;47.20
39957;DHT22;48483;44.640;7.494;2024-03-25T12:25:11;14.50;47.90
39957;DHT22;48483;44.640;7.494;2024-03-25T12:27:41;14.50;47.40
39957;DHT22;48483;44.640;7.494;2024-03-25T12:30:14;14.50;48.10
39957;DHT22;48483;44.640;7.494;2024-03-25T12:32:45;14.50;47.50
39957;DHT22;48483;44.640;7.494;2024-03-25T12:35:15;14.50;46.20
39957;DHT22;48483;44.640;7.494;2024-03-25T12:37:49;14.50;46.40
39957;DHT22;48483;44.640;7.494;2024-03-25T12:40:28;14.40;44.80
39957;DHT22;48483;44.640;7.494;2024-03-25T12:42:59;14.40;45.00
39957;DHT22;48483;44.640;7.494;2024-03-25T12:45:27;14.40;45.80
39957;DHT22;48483;44.640;7.494;2024-03-25T12:47:57;14.40;46.60
39957;DHT22;48483;44.640;7.494;2024-03-25T12:50:25;14.50;47.00
39957;DHT22;48483;44.640;7.494;2024-03-25T12:52:54;14.60;46.60
39957;DHT22;48483;44.640;7.494;2024-03-25T12:55:21;14.50;47.00
39957;DHT22;48483;44.640;7.494;2024-03-25T12:57:48;14.60;47.00
39957;DHT22;48483;44.640;7.494;2024-03-25T13:00:18;14.70;46.80
39957;DHT22;48483;44.640;7.494;2024-03-25T13:02:52;14.70;46.80
39957;DHT22;48483;44.640;7.494;2024-03-25T13:05:26;14.70;45.80
39957;DHT22;48483;44.640;7.494;2024-03-25T13:07:58;14.90;46.00
39957;DHT22;48483;44.640;7.494;2024-03-25T13:10:26;14.80;45.50
39957;DHT22;48483;44.640;7.494;2024-03-25T13:12:53;14.70;44.90
39957;DHT22;48483;44.640;7.494;2024-03-25T13:15:20;14.70;45.30
39957;DHT22;48483;44.640;7.494;2024-03-25T13:17:47;14.70;45.10
39957;DHT22;48483;44.640;7.494;2024-03-25T13:20:13;14.60;44.80
39957;DHT22;48483;44.640;7.494;2024-03-25T13:22:41;14.70;45.40
39957;DHT22;48483;44.640;7.494;2024-03-25T13:25:11;14.70;45.10
39957;DHT22;48483;44.640;7.494;2024-03-25T13:27:38;14.70;45.50
39957;DHT22;48483;44.640;7.494;2024-03-25T13:30:06;14.80;45.60
39957;DHT22;48483;44.640;7.494;2024-03-25T13:32:33;14.70;45.40
39957;DHT22;48483;44.640;7.494;2024-03-25T13:34:59;14.70;46.00
39957;DHT22;48483;44.640;7.494;2024-03-25T13:37:27;14.80;45.50
39957;DHT22;48483;44.640;7.494;2024-03-25T13:39:55;14.70;44.90
39957;DHT22;48483;44.640;7.494;2024-03-25T13:42:22;14.80;45.10
39957;DHT22;48483;44.640;7.494;2024-03-25T13:44:49;14.60;46.00
39957;DHT22;48483;44.640;7.494;2024-03-25T13:47:15;14.60;46.00
39957;DHT22;48483;44.640;7.494;2024-03-25T13:49:42;14.70;46.00
39957;DHT22;48483;44.640;7.494;2024-03-25T13:52:09;14.70;46.00
39957;DHT22;48483;44.640;7.494;2024-03-25T13:54:35;14.80;44.70
39957;DHT22;48483;44.640;7.494;2024-03-25T13:57:03;14.90;44.00
39957;DHT22;48483;44.640;7.494;2024-03-25T13:59:30;14.90;43.20
39957;DHT22;48483;44.640;7.494;2024-03-25T14:01:57;14.90;41.60
39957;DHT22;48483;44.640;7.494;2024-03-25T14:04:23;14.80;40.70
39957;DHT22;48483;44.640;7.494;2024-03-25T14:06:50;14.90;40.10
39957;DHT22;48483;44.640;7.494;2024-03-25T14:09:23;15.00;40.00
39957;DHT22;48483;44.640;7.494;2024-03-25T14:11:50;15.00;40.20
39957;DHT22;48483;44.640;7.494;2024-03-25T14:14:18;15.00;38.50
39957;DHT22;48483;44.640;7.494;2024-03-25T14:16:45;15.00;38.70
39957;DHT22;48483;44.640;7.494;2024-03-25T14:19:12;14.90;39.30
39957;DHT22;48483;44.640;7.494;2024-03-25T14:21:38;14.90;40.30
39957;DHT22;48483;44.640;7.494;2024-03-25T14:24:06;14.80;41.50
39957;DHT22;48483;44.640;7.494;2024-03-25T14:26:33;14.90;42.50
39957;DHT22;48483;44.640;7.494;2024-03-25T14:29:00;14.90;42.90
39957;DHT22;48483;44.640;7.494;2024-03-25T14:31:28;14.90;43.80
39957;DHT22;48483;44.640;7.494;2024-03-25T14:33:55;14.90;44.40
39957;DHT22;48483;44.640;7.494;2024-03-25T14:36:22;15.00;44.60
39957;DHT22;48483;44.640;7.494;2024-03-25T14:38:49;14.90;44.60
39957;DHT22;48483;44.640;7.494;2024-03-25T14:41:18;15.00;45.50
39957;DHT22;48483;44.640;7.494;2024-03-25T14:43:45;15.00;45.30
39957;DHT22;48483;44.640;7.494;2024-03-25T14:46:12;15.00;44.60
39957;DHT22;48483;44.640;7.494;2024-03-25T14:48:40;15.00;44.40
39957;DHT22;48483;44.640;7.494;2024-03-25T14:51:07;15.00;45.10
39957;DHT22;48483;44.640;7.494;2024-03-25T14:53:34;15.00;44.10
39957;DHT22;48483;44.640;7.494;2024-03-25T14:56:00;14.90;43.80
39957;DHT22;48483;44.640;7.494;2024-03-25T14:58:27;14.90;43.50
39957;DHT22;48483;44.640;7.494;2024-03-25T15:00:54;14.80;43.50
39957;DHT22;48483;44.640;7.494;2024-03-25T15:03:20;14.70;43.50
39957;DHT22;48483;44.640;7.494;2024-03-25T15:05:48;14.70;44.00
39957;DHT22;48483;44.640;7.494;2024-03-25T15:08:15;14.70;44.60
39957;DHT22;48483;44.640;7.494;2024-03-25T15:10:41;14.80;45.20
39957;DHT22;48483;44.640;7.494;2024-03-25T15:13:08;14.80;44.70
39957;DHT22;48483;44.640;7.494;2024-03-25T15:15:38;14.80;44.90
39957;DHT22;48483;44.640;7.494;2024-03-25T15:18:05;14.80;44.70
39957;DHT22;48483;44.640;7.494;2024-03-25T15:20:34;14.70;44.20
39957;DHT22;48483;44.640;7.494;2024-03-25T15:23:02;14.60;44.40
39957;DHT22;48483;44.640;7.494;2024-03-25T15:25:29;14.60;44.90
39957;DHT22;48483;44.640;7.494;2024-03-25T15:27:56;14.70;44.90
39957;DHT22;48483;44.640;7.494;2024-03-25T15:30:22;14.70;45.20
39957;DHT22;48483;44.640;7.494;2024-03-25T15:32:49;14.70;44.60
39957;DHT22;48483;44.640;7.494;2024-03-25T15:35:16;14.70;44.30
39957;DHT22;48483;44.640;7.494;2024-03-25T15:37:42;14.60;44.00
39957;DHT22;48483;44.640;7.494;2024-03-25T15:40:11;14.50;43.50